Aviation Digital Data Service (ADDS)

Output produced by METARs form (0121 UTC 17 July 2019)
found at http://www.aviationweather.gov/metar/data/
 
METAR text: ESOW 170050Z AUTO 33005KT 9999 OVC011/// 13/11 Q1011
Conditions at: ESOW (VASTERAS/HASSLO , SE) observed 0050 UTC 17 July 2019
Temperature: 13.0°C (55°F)
Dewpoint: 11.0°C (52°F) [RH = 88%]
Pressure (altimeter): 29.85 inches Hg (1011.0 mb)
Winds: from the NNW (330 degrees) at 6 MPH (5 knots; 2.6 m/s)
Visibility: 6 or more miles (10+ km)
Ceiling: 1100 feet AGL
Clouds: overcast cloud deck at 1100 feet AGL
Weather: no significant weather observed at this time

METAR text: ESOW 170020Z AUTO 33006KT 9999 OVC011/// 13/11 Q1011
Conditions at: ESOW (VASTERAS/HASSLO , SE) observed 0020 UTC 17 July 2019
Temperature: 13.0°C (55°F)
Dewpoint: 11.0°C (52°F) [RH = 88%]
Pressure (altimeter): 29.85 inches Hg (1011.0 mb)
Winds: from the NNW (330 degrees) at 7 MPH (6 knots; 3.1 m/s)
Visibility: 6 or more miles (10+ km)
Ceiling: 1100 feet AGL
Clouds: overcast cloud deck at 1100 feet AGL
Weather: no significant weather observed at this time

METAR text: ESOW 162350Z AUTO 34007KT 9999 OVC013/// 13/11 Q1011
Conditions at: ESOW (VASTERAS/HASSLO , SE) observed 2350 UTC 16 July 2019
Temperature: 13.0°C (55°F)
Dewpoint: 11.0°C (52°F) [RH = 88%]
Pressure (altimeter): 29.85 inches Hg (1011.0 mb)
Winds: from the NNW (340 degrees) at 8 MPH (7 knots; 3.6 m/s)
Visibility: 6 or more miles (10+ km)
Ceiling: 1300 feet AGL
Clouds: overcast cloud deck at 1300 feet AGL
Weather: no significant weather observed at this time

METAR text: ESOW 162320Z AUTO 34007KT 9999 BKN013/// OVC080/// 13/10 Q1011
Conditions at: ESOW (VASTERAS/HASSLO , SE) observed 2320 UTC 16 July 2019
Temperature: 13.0°C (55°F)
Dewpoint: 10.0°C (50°F) [RH = 82%]
Pressure (altimeter): 29.85 inches Hg (1011.0 mb)
Winds: from the NNW (340 degrees) at 8 MPH (7 knots; 3.6 m/s)
Visibility: 6 or more miles (10+ km)
Ceiling: 1300 feet AGL
Clouds: broken clouds at 1300 feet AGL
overcast cloud deck at 8000 feet AGL
Weather: no significant weather observed at this time

METAR text: ESOW 162250Z AUTO 32005KT 9999 BKN012/// 13/11 Q1011
Conditions at: ESOW (VASTERAS/HASSLO , SE) observed 2250 UTC 16 July 2019
Temperature: 13.0°C (55°F)
Dewpoint: 11.0°C (52°F) [RH = 88%]
Pressure (altimeter): 29.85 inches Hg (1011.0 mb)
Winds: from the NW (320 degrees) at 6 MPH (5 knots; 2.6 m/s)
Visibility: 6 or more miles (10+ km)
Ceiling: 1200 feet AGL
Clouds: broken clouds at 1200 feet AGL
Weather: no significant weather observed at this time

METAR text: ESOW 162220Z AUTO 33006KT 9999 BKN014/// OVC048/// 13/11 Q1011
Conditions at: ESOW (VASTERAS/HASSLO , SE) observed 2220 UTC 16 July 2019
Temperature: 13.0°C (55°F)
Dewpoint: 11.0°C (52°F) [RH = 88%]
Pressure (altimeter): 29.85 inches Hg (1011.0 mb)
Winds: from the NNW (330 degrees) at 7 MPH (6 knots; 3.1 m/s)
Visibility: 6 or more miles (10+ km)
Ceiling: 1400 feet AGL
Clouds: broken clouds at 1400 feet AGL
overcast cloud deck at 4800 feet AGL
Weather: no significant weather observed at this time

METAR text: ESOW 162150Z AUTO 32005KT 9999 BKN014/// OVC048/// 13/11 Q1011
Conditions at: ESOW (VASTERAS/HASSLO , SE) observed 2150 UTC 16 July 2019
Temperature: 13.0°C (55°F)
Dewpoint: 11.0°C (52°F) [RH = 88%]
Pressure (altimeter): 29.85 inches Hg (1011.0 mb)
Winds: from the NW (320 degrees) at 6 MPH (5 knots; 2.6 m/s)
Visibility: 6 or more miles (10+ km)
Ceiling: 1400 feet AGL
Clouds: broken clouds at 1400 feet AGL
overcast cloud deck at 4800 feet AGL
Weather: no significant weather observed at this time

METAR text: ESOW 162120Z AUTO 32006KT 9999 FEW017/// 13/11 Q1010
Conditions at: ESOW (VASTERAS/HASSLO , SE) observed 2120 UTC 16 July 2019
Temperature: 13.0°C (55°F)
Dewpoint: 11.0°C (52°F) [RH = 88%]
Pressure (altimeter): 29.82 inches Hg (1010.0 mb)
Winds: from the NW (320 degrees) at 7 MPH (6 knots; 3.1 m/s)
Visibility: 6 or more miles (10+ km)
Ceiling: at least 12,000 feet AGL
Clouds: few clouds at 1700 feet AGL
Weather: no significant weather observed at this time

METAR text: ESOW 162050Z AUTO 36008KT 9999 FEW011/// BKN017/// OVC023/// 13/11 Q1010
Conditions at: ESOW (VASTERAS/HASSLO , SE) observed 2050 UTC 16 July 2019
Temperature: 13.0°C (55°F)
Dewpoint: 11.0°C (52°F) [RH = 88%]
Pressure (altimeter): 29.82 inches Hg (1010.0 mb)
Winds: from the N (360 degrees) at 9 MPH (8 knots; 4.1 m/s)
Visibility: 6 or more miles (10+ km)
Ceiling: 1700 feet AGL
Clouds: few clouds at 1100 feet AGL
broken clouds at 1700 feet AGL
overcast cloud deck at 2300 feet AGL
Weather: no significant weather observed at this time

METAR text: ESOW 162020Z AUTO 35007KT 9999 OVC009/// 14/12 Q1010
Conditions at: ESOW (VASTERAS/HASSLO , SE) observed 2020 UTC 16 July 2019
Temperature: 14.0°C (57°F)
Dewpoint: 12.0°C (54°F) [RH = 88%]
Pressure (altimeter): 29.82 inches Hg (1010.0 mb)
Winds: from the N (350 degrees) at 8 MPH (7 knots; 3.6 m/s)
Visibility: 6 or more miles (10+ km)
Ceiling: 900 feet AGL
Clouds: overcast cloud deck at 900 feet AGL
Weather: no significant weather observed at this time

METAR text: ESOW 161950Z AUTO 35007KT 9999 BKN009/// OVC013/// 14/12 Q1010
Conditions at: ESOW (VASTERAS/HASSLO , SE) observed 1950 UTC 16 July 2019
Temperature: 14.0°C (57°F)
Dewpoint: 12.0°C (54°F) [RH = 88%]
Pressure (altimeter): 29.82 inches Hg (1010.0 mb)
Winds: from the N (350 degrees) at 8 MPH (7 knots; 3.6 m/s)
Visibility: 6 or more miles (10+ km)
Ceiling: 900 feet AGL
Clouds: broken clouds at 900 feet AGL
overcast cloud deck at 1300 feet AGL
Weather: no significant weather observed at this time

METAR text: ESOW 161920Z AUTO 35008KT 310V020 9999 FEW006/// BKN010/// OVC022/// 14/12 Q1010
Conditions at: ESOW (VASTERAS/HASSLO , SE) observed 1920 UTC 16 July 2019
Temperature: 14.0°C (57°F)
Dewpoint: 12.0°C (54°F) [RH = 88%]
Pressure (altimeter): 29.82 inches Hg (1010.0 mb)
Winds: from the N (350 degrees) at 9 MPH (8 knots; 4.1 m/s)
Visibility: 6 or more miles (10+ km)
Ceiling: 1000 feet AGL
Clouds: few clouds at 600 feet AGL
broken clouds at 1000 feet AGL
overcast cloud deck at 2200 feet AGL
Weather: no significant weather observed at this time

METAR text: ESOW 161850Z AUTO 35010KT 5000 RA VV028 14/12 Q1010
Conditions at: ESOW (VASTERAS/HASSLO , SE) observed 1850 UTC 16 July 2019
Temperature: 14.0°C (57°F)
Dewpoint: 12.0°C (54°F) [RH = 88%]
Pressure (altimeter): 29.82 inches Hg (1010.0 mb)
Winds: from the N (350 degrees) at 12 MPH (10 knots; 5.1 m/s)
Visibility: 3 miles ( 5 km)
Ceiling: indefinite ceiling with vertical visibility of 2800 feet AGL
Clouds: obscured sky
Weather: RA  (moderate rain)

METAR text: ESOW 161820Z AUTO 34010KT 9999 SCT041/// OVC055/// 15/12 Q1010
Conditions at: ESOW (VASTERAS/HASSLO , SE) observed 1820 UTC 16 July 2019
Temperature: 15.0°C (59°F)
Dewpoint: 12.0°C (54°F) [RH = 82%]
Pressure (altimeter): 29.82 inches Hg (1010.0 mb)
Winds: from the NNW (340 degrees) at 12 MPH (10 knots; 5.1 m/s)
Visibility: 6 or more miles (10+ km)
Ceiling: 5500 feet AGL
Clouds: scattered clouds at 4100 feet AGL
overcast cloud deck at 5500 feet AGL
Weather: no significant weather observed at this time

METAR text: ESOW 161750Z AUTO 34010KT 9999 FEW061/// OVC092/// 15/12 Q1009
Conditions at: ESOW (VASTERAS/HASSLO , SE) observed 1750 UTC 16 July 2019
Temperature: 15.0°C (59°F)
Dewpoint: 12.0°C (54°F) [RH = 82%]
Pressure (altimeter): 29.79 inches Hg (1009.0 mb)
Winds: from the NNW (340 degrees) at 12 MPH (10 knots; 5.1 m/s)
Visibility: 6 or more miles (10+ km)
Ceiling: 9200 feet AGL
Clouds: few clouds at 6100 feet AGL
overcast cloud deck at 9200 feet AGL
Weather: no significant weather observed at this time

METAR text: ESOW 161720Z AUTO 34009KT 9999 SCT066/// OVC098/// 16/11 Q1009
Conditions at: ESOW (VASTERAS/HASSLO , SE) observed 1720 UTC 16 July 2019
Temperature: 16.0°C (61°F)
Dewpoint: 11.0°C (52°F) [RH = 72%]
Pressure (altimeter): 29.79 inches Hg (1009.0 mb)
Winds: from the NNW (340 degrees) at 10 MPH (9 knots; 4.6 m/s)
Visibility: 6 or more miles (10+ km)
Ceiling: 9800 feet AGL
Clouds: scattered clouds at 6600 feet AGL
overcast cloud deck at 9800 feet AGL
Weather: no significant weather observed at this time

METAR text: ESOW 161650Z AUTO 34011KT 9999 OVC064/// 16/11 Q1009
Conditions at: ESOW (VASTERAS/HASSLO , SE) observed 1650 UTC 16 July 2019
Temperature: 16.0°C (61°F)
Dewpoint: 11.0°C (52°F) [RH = 72%]
Pressure (altimeter): 29.79 inches Hg (1009.0 mb)
Winds: from the NNW (340 degrees) at 13 MPH (11 knots; 5.7 m/s)
Visibility: 6 or more miles (10+ km)
Ceiling: 6400 feet AGL
Clouds: overcast cloud deck at 6400 feet AGL
Weather: no significant weather observed at this time

METAR text: ESOW 161620Z AUTO 35005KT 310V020 9999 SCT021/// BKN028/// OVC062/// 16/11 Q1008
Conditions at: ESOW (VASTERAS/HASSLO , SE) observed 1620 UTC 16 July 2019
Temperature: 16.0°C (61°F)
Dewpoint: 11.0°C (52°F) [RH = 72%]
Pressure (altimeter): 29.76 inches Hg (1008.0 mb)
Winds: from the N (350 degrees) at 6 MPH (5 knots; 2.6 m/s)
Visibility: 6 or more miles (10+ km)
Ceiling: 2800 feet AGL
Clouds: scattered clouds at 2100 feet AGL
broken clouds at 2800 feet AGL
overcast cloud deck at 6200 feet AGL
Weather: no significant weather observed at this time

METAR text: ESOW 161550Z AUTO 02007KT 9999 BKN066/// 16/10 Q1008
Conditions at: ESOW (VASTERAS/HASSLO , SE) observed 1550 UTC 16 July 2019
Temperature: 16.0°C (61°F)
Dewpoint: 10.0°C (50°F) [RH = 68%]
Pressure (altimeter): 29.76 inches Hg (1008.0 mb)
Winds: from the NNE (20 degrees) at 8 MPH (7 knots; 3.6 m/s)
Visibility: 6 or more miles (10+ km)
Ceiling: 6600 feet AGL
Clouds: broken clouds at 6600 feet AGL
Weather: no significant weather observed at this time

METAR text: ESOW 161520Z AUTO 02008KT 340V040 9999 BKN066/// 16/10 Q1008
Conditions at: ESOW (VASTERAS/HASSLO , SE) observed 1520 UTC 16 July 2019
Temperature: 16.0°C (61°F)
Dewpoint: 10.0°C (50°F) [RH = 68%]
Pressure (altimeter): 29.76 inches Hg (1008.0 mb)
Winds: from the NNE (20 degrees) at 9 MPH (8 knots; 4.1 m/s)
Visibility: 6 or more miles (10+ km)
Ceiling: 6600 feet AGL
Clouds: broken clouds at 6600 feet AGL
Weather: no significant weather observed at this time

METAR text: ESOW 161450Z AUTO 02012KT 9999 OVC053/// 15/10 Q1008
Conditions at: ESOW (VASTERAS/HASSLO , SE) observed 1450 UTC 16 July 2019
Temperature: 15.0°C (59°F)
Dewpoint: 10.0°C (50°F) [RH = 72%]
Pressure (altimeter): 29.76 inches Hg (1008.0 mb)
Winds: from the NNE (20 degrees) at 14 MPH (12 knots; 6.2 m/s)
Visibility: 6 or more miles (10+ km)
Ceiling: 5300 feet AGL
Clouds: overcast cloud deck at 5300 feet AGL
Weather: no significant weather observed at this time

METAR text: ESOW 161420Z AUTO 02007KT 9999 FEW022/// SCT038/// BKN051/// 15/11 Q1008
Conditions at: ESOW (VASTERAS/HASSLO , SE) observed 1420 UTC 16 July 2019
Temperature: 15.0°C (59°F)
Dewpoint: 11.0°C (52°F) [RH = 77%]
Pressure (altimeter): 29.76 inches Hg (1008.0 mb)
Winds: from the NNE (20 degrees) at 8 MPH (7 knots; 3.6 m/s)
Visibility: 6 or more miles (10+ km)
Ceiling: 5100 feet AGL
Clouds: few clouds at 2200 feet AGL
scattered clouds at 3800 feet AGL
broken clouds at 5100 feet AGL
Weather: no significant weather observed at this time

METAR text: ESOW 161350Z AUTO 02011KT 340V050 9999 -RA FEW005/// SCT031/// BKN043/// 15/11 Q1008 REDZ
Conditions at: ESOW (VASTERAS/HASSLO , SE) observed 1350 UTC 16 July 2019
Temperature: 15.0°C (59°F)
Dewpoint: 11.0°C (52°F) [RH = 77%]
Pressure (altimeter): 29.76 inches Hg (1008.0 mb)
Winds: from the NNE (20 degrees) at 13 MPH (11 knots; 5.7 m/s)
Visibility: 6 or more miles (10+ km)
Ceiling: 4300 feet AGL
Clouds: few clouds at 500 feet AGL
scattered clouds at 3100 feet AGL
broken clouds at 4300 feet AGL
Weather: -RA  (light rain)

METAR text: ESOW 161320Z AUTO 02011KT 9999 FEW018/// SCT024/// BKN030/// 15/12 Q1007 REDZ
Conditions at: ESOW (VASTERAS/HASSLO , SE) observed 1320 UTC 16 July 2019
Temperature: 15.0°C (59°F)
Dewpoint: 12.0°C (54°F) [RH = 82%]
Pressure (altimeter): 29.73 inches Hg (1007.0 mb)
Winds: from the NNE (20 degrees) at 13 MPH (11 knots; 5.7 m/s)
Visibility: 6 or more miles (10+ km)
Ceiling: 3000 feet AGL
Clouds: few clouds at 1800 feet AGL
scattered clouds at 2400 feet AGL
broken clouds at 3000 feet AGL
Weather: no significant weather observed at this time

METAR text: ESOW 161250Z AUTO 03010KT 360V060 9999 FEW014/// SCT024/// OVC064/// 15/11 Q1007
Conditions at: ESOW (VASTERAS/HASSLO , SE) observed 1250 UTC 16 July 2019
Temperature: 15.0°C (59°F)
Dewpoint: 11.0°C (52°F) [RH = 77%]
Pressure (altimeter): 29.73 inches Hg (1007.0 mb)
Winds: from the NNE (30 degrees) at 12 MPH (10 knots; 5.1 m/s)
Visibility: 6 or more miles (10+ km)
Ceiling: 6400 feet AGL
Clouds: few clouds at 1400 feet AGL
scattered clouds at 2400 feet AGL
overcast cloud deck at 6400 feet AGL
Weather: no significant weather observed at this time

METAR text: ESOW 161220Z AUTO 05008KT 010V090 9999 FEW012/// SCT022/// OVC032/// 14/11 Q1006
Conditions at: ESOW (VASTERAS/HASSLO , SE) observed 1220 UTC 16 July 2019
Temperature: 14.0°C (57°F)
Dewpoint: 11.0°C (52°F) [RH = 82%]
Pressure (altimeter): 29.70 inches Hg (1006.0 mb)
Winds: from the NE (50 degrees) at 9 MPH (8 knots; 4.1 m/s)
Visibility: 6 or more miles (10+ km)
Ceiling: 3200 feet AGL
Clouds: few clouds at 1200 feet AGL
scattered clouds at 2200 feet AGL
overcast cloud deck at 3200 feet AGL
Weather: no significant weather observed at this time

METAR text: ESOW 161150Z AUTO 05009KT 9999 SCT015/// OVC049/// 15/11 Q1006
Conditions at: ESOW (VASTERAS/HASSLO , SE) observed 1150 UTC 16 July 2019
Temperature: 15.0°C (59°F)
Dewpoint: 11.0°C (52°F) [RH = 77%]
Pressure (altimeter): 29.70 inches Hg (1006.0 mb)
Winds: from the NE (50 degrees) at 10 MPH (9 knots; 4.6 m/s)
Visibility: 6 or more miles (10+ km)
Ceiling: 4900 feet AGL
Clouds: scattered clouds at 1500 feet AGL
overcast cloud deck at 4900 feet AGL
Weather: no significant weather observed at this time

METAR text: ESOW 161120Z AUTO 04009KT 9999 -RA FEW007/// BKN009/// OVC027/// 14/11 Q1005 REDZ
Conditions at: ESOW (VASTERAS/HASSLO , SE) observed 1120 UTC 16 July 2019
Temperature: 14.0°C (57°F)
Dewpoint: 11.0°C (52°F) [RH = 82%]
Pressure (altimeter): 29.68 inches Hg (1005.0 mb)
Winds: from the NE (40 degrees) at 10 MPH (9 knots; 4.6 m/s)
Visibility: 6 or more miles (10+ km)
Ceiling: 900 feet AGL
Clouds: few clouds at 700 feet AGL
broken clouds at 900 feet AGL
overcast cloud deck at 2700 feet AGL
Weather: -RA  (light rain)

METAR text: ESOW 161050Z AUTO 06003KT 360V100 9999 BKN006/// OVC013/// 13/11 Q1005
Conditions at: ESOW (VASTERAS/HASSLO , SE) observed 1050 UTC 16 July 2019
Temperature: 13.0°C (55°F)
Dewpoint: 11.0°C (52°F) [RH = 88%]
Pressure (altimeter): 29.68 inches Hg (1005.0 mb)
Winds: from the ENE (60 degrees) at 3 MPH (3 knots; 1.5 m/s)
Visibility: 6 or more miles (10+ km)
Ceiling: 600 feet AGL
Clouds: broken clouds at 600 feet AGL
overcast cloud deck at 1300 feet AGL
Weather: no significant weather observed at this time

METAR text: ESOW 161020Z AUTO VRB02KT 2000 DZ VV001 12/11 Q1004
Conditions at: ESOW (VASTERAS/HASSLO , SE) observed 1020 UTC 16 July 2019
Temperature: 12.0°C (54°F)
Dewpoint: 11.0°C (52°F) [RH = 94%]
Pressure (altimeter): 29.65 inches Hg (1004.0 mb)
Winds: variable direction winds at 2 MPH (2 knots; 1.0 m/s)
Visibility: 1.24 miles (2.00 km)
Ceiling: indefinite ceiling with vertical visibility of 100 feet AGL
Clouds: obscured sky
Weather: DZ  (moderate drizzle)

METAR text: ESOW 160950Z AUTO 24004KT 200V310 3900 -RA BKN006/// OVC009/// 12/10 Q1004
Conditions at: ESOW (VASTERAS/HASSLO , SE) observed 0950 UTC 16 July 2019
Temperature: 12.0°C (54°F)
Dewpoint: 10.0°C (50°F) [RH = 88%]
Pressure (altimeter): 29.65 inches Hg (1004.0 mb)
Winds: from the WSW (240 degrees) at 5 MPH (4 knots; 2.1 m/s)
Visibility: 2.42 miles (3.89 km)
Ceiling: 600 feet AGL
Clouds: broken clouds at 600 feet AGL
overcast cloud deck at 900 feet AGL
Weather: -RA  (light rain)

METAR text: ESOW 160920Z AUTO 26004KT 190V310 4700 -RA SCT008/// BKN010/// OVC015/// 12/10 Q1004 REDZ
Conditions at: ESOW (VASTERAS/HASSLO , SE) observed 0920 UTC 16 July 2019
Temperature: 12.0°C (54°F)
Dewpoint: 10.0°C (50°F) [RH = 88%]
Pressure (altimeter): 29.65 inches Hg (1004.0 mb)
Winds: from the W (260 degrees) at 5 MPH (4 knots; 2.1 m/s)
Visibility: 2.92 miles (4.70 km)
Ceiling: 1000 feet AGL
Clouds: scattered clouds at 800 feet AGL
broken clouds at 1000 feet AGL
overcast cloud deck at 1500 feet AGL
Weather: -RA  (light rain)

METAR text: ESOW 160850Z AUTO 25008KT 200V290 3200 DZ FEW009/// BKN015/// OVC023/// 12/10 Q1004
Conditions at: ESOW (VASTERAS/HASSLO , SE) observed 0850 UTC 16 July 2019
Temperature: 12.0°C (54°F)
Dewpoint: 10.0°C (50°F) [RH = 88%]
Pressure (altimeter): 29.65 inches Hg (1004.0 mb)
Winds: from the WSW (250 degrees) at 9 MPH (8 knots; 4.1 m/s)
Visibility: 1.99 miles (3.20 km)
Ceiling: 1500 feet AGL
Clouds: few clouds at 900 feet AGL
broken clouds at 1500 feet AGL
overcast cloud deck at 2300 feet AGL
Weather: DZ  (moderate drizzle)

METAR text: ESOW 160820Z AUTO 25007KT 220V290 6000 -RA BKN019/// OVC040/// 12/09 Q1004 REDZ
Conditions at: ESOW (VASTERAS/HASSLO , SE) observed 0820 UTC 16 July 2019
Temperature: 12.0°C (54°F)
Dewpoint: 9.0°C (48°F) [RH = 82%]
Pressure (altimeter): 29.65 inches Hg (1004.0 mb)
Winds: from the WSW (250 degrees) at 8 MPH (7 knots; 3.6 m/s)
Visibility: 4 miles ( 6 km)
Ceiling: 1900 feet AGL
Clouds: broken clouds at 1900 feet AGL
overcast cloud deck at 4000 feet AGL
Weather: -RA  (light rain)

METAR text: ESOW 160750Z AUTO 27009KT 240V310 9999 -DZ BKN020/// OVC034/// 12/08 Q1004
Conditions at: ESOW (VASTERAS/HASSLO , SE) observed 0750 UTC 16 July 2019
Temperature: 12.0°C (54°F)
Dewpoint: 8.0°C (46°F) [RH = 76%]
Pressure (altimeter): 29.65 inches Hg (1004.0 mb)
Winds: from the W (270 degrees) at 10 MPH (9 knots; 4.6 m/s)
Visibility: 6 or more miles (10+ km)
Ceiling: 2000 feet AGL
Clouds: broken clouds at 2000 feet AGL
overcast cloud deck at 3400 feet AGL
Weather: -DZ  (light drizzle)

METAR text: ESOW 160720Z AUTO 28009KT 240V330 9999 -RA BKN022/// BKN036/// OVC047/// 12/08 Q1005
Conditions at: ESOW (VASTERAS/HASSLO , SE) observed 0720 UTC 16 July 2019
Temperature: 12.0°C (54°F)
Dewpoint: 8.0°C (46°F) [RH = 76%]
Pressure (altimeter): 29.68 inches Hg (1005.0 mb)
Winds: from the W (280 degrees) at 10 MPH (9 knots; 4.6 m/s)
Visibility: 6 or more miles (10+ km)
Ceiling: 2200 feet AGL
Clouds: broken clouds at 2200 feet AGL
broken clouds at 3600 feet AGL
overcast cloud deck at 4700 feet AGL
Weather: -RA  (light rain)

METAR text: ESOW 160650Z AUTO 29007KT 250V330 9999 BKN023/// OVC057/// 13/08 Q1005
Conditions at: ESOW (VASTERAS/HASSLO , SE) observed 0650 UTC 16 July 2019
Temperature: 13.0°C (55°F)
Dewpoint: 8.0°C (46°F) [RH = 72%]
Pressure (altimeter): 29.68 inches Hg (1005.0 mb)
Winds: from the WNW (290 degrees) at 8 MPH (7 knots; 3.6 m/s)
Visibility: 6 or more miles (10+ km)
Ceiling: 2300 feet AGL
Clouds: broken clouds at 2300 feet AGL
overcast cloud deck at 5700 feet AGL
Weather: no significant weather observed at this time

METAR text: ESOW 160620Z AUTO 29006KT 250V330 9999 FEW025/// OVC051/// 13/07 Q1005
Conditions at: ESOW (VASTERAS/HASSLO , SE) observed 0620 UTC 16 July 2019
Temperature: 13.0°C (55°F)
Dewpoint: 7.0°C (45°F) [RH = 67%]
Pressure (altimeter): 29.68 inches Hg (1005.0 mb)
Winds: from the WNW (290 degrees) at 7 MPH (6 knots; 3.1 m/s)
Visibility: 6 or more miles (10+ km)
Ceiling: 5100 feet AGL
Clouds: few clouds at 2500 feet AGL
overcast cloud deck at 5100 feet AGL
Weather: no significant weather observed at this time

METAR text: ESOW 160550Z AUTO 28006KT 240V320 9999 BKN061/// OVC076/// 12/07 Q1005
Conditions at: ESOW (VASTERAS/HASSLO , SE) observed 0550 UTC 16 July 2019
Temperature: 12.0°C (54°F)
Dewpoint: 7.0°C (45°F) [RH = 71%]
Pressure (altimeter): 29.68 inches Hg (1005.0 mb)
Winds: from the W (280 degrees) at 7 MPH (6 knots; 3.1 m/s)
Visibility: 6 or more miles (10+ km)
Ceiling: 6100 feet AGL
Clouds: broken clouds at 6100 feet AGL
overcast cloud deck at 7600 feet AGL
Weather: no significant weather observed at this time

METAR text: ESOW 160520Z AUTO 28005KT 240V320 9999 FEW048/// OVC076/// 11/07 Q1005
Conditions at: ESOW (VASTERAS/HASSLO , SE) observed 0520 UTC 16 July 2019
Temperature: 11.0°C (52°F)
Dewpoint: 7.0°C (45°F) [RH = 76%]
Pressure (altimeter): 29.68 inches Hg (1005.0 mb)
Winds: from the W (280 degrees) at 6 MPH (5 knots; 2.6 m/s)
Visibility: 6 or more miles (10+ km)
Ceiling: 7600 feet AGL
Clouds: few clouds at 4800 feet AGL
overcast cloud deck at 7600 feet AGL
Weather: no significant weather observed at this time

METAR text: ESOW 160450Z AUTO 28006KT 230V320 9999 -DZ SCT080/// OVC100/// 11/07 Q1006
Conditions at: ESOW (VASTERAS/HASSLO , SE) observed 0450 UTC 16 July 2019
Temperature: 11.0°C (52°F)
Dewpoint: 7.0°C (45°F) [RH = 76%]
Pressure (altimeter): 29.70 inches Hg (1006.0 mb)
Winds: from the W (280 degrees) at 7 MPH (6 knots; 3.1 m/s)
Visibility: 6 or more miles (10+ km)
Ceiling: 10000 feet AGL
Clouds: scattered clouds at 8000 feet AGL
overcast cloud deck at 10000 feet AGL
Weather: -DZ  (light drizzle)

METAR text: ESOW 160420Z AUTO 29007KT 9999 FEW059/// OVC100/// 11/06 Q1006
Conditions at: ESOW (VASTERAS/HASSLO , SE) observed 0420 UTC 16 July 2019
Temperature: 11.0°C (52°F)
Dewpoint: 6.0°C (43°F) [RH = 71%]
Pressure (altimeter): 29.70 inches Hg (1006.0 mb)
Winds: from the WNW (290 degrees) at 8 MPH (7 knots; 3.6 m/s)
Visibility: 6 or more miles (10+ km)
Ceiling: 10000 feet AGL
Clouds: few clouds at 5900 feet AGL
overcast cloud deck at 10000 feet AGL
Weather: no significant weather observed at this time

METAR text: ESOW 160350Z AUTO 30007KT 260V340 9999 OVC100/// 10/06 Q1006
Conditions at: ESOW (VASTERAS/HASSLO , SE) observed 0350 UTC 16 July 2019
Temperature: 10.0°C (50°F)
Dewpoint: 6.0°C (43°F) [RH = 76%]
Pressure (altimeter): 29.70 inches Hg (1006.0 mb)
Winds: from the WNW (300 degrees) at 8 MPH (7 knots; 3.6 m/s)
Visibility: 6 or more miles (10+ km)
Ceiling: 10000 feet AGL
Clouds: overcast cloud deck at 10000 feet AGL
Weather: no significant weather observed at this time

METAR text: ESOW 160320Z AUTO 31006KT 9999 OVC100/// 10/07 Q1006
Conditions at: ESOW (VASTERAS/HASSLO , SE) observed 0320 UTC 16 July 2019
Temperature: 10.0°C (50°F)
Dewpoint: 7.0°C (45°F) [RH = 82%]
Pressure (altimeter): 29.70 inches Hg (1006.0 mb)
Winds: from the NW (310 degrees) at 7 MPH (6 knots; 3.1 m/s)
Visibility: 6 or more miles (10+ km)
Ceiling: 10000 feet AGL
Clouds: overcast cloud deck at 10000 feet AGL
Weather: no significant weather observed at this time

METAR text: ESOW 160250Z AUTO 30006KT 9999 SCT100/// 10/07 Q1006
Conditions at: ESOW (VASTERAS/HASSLO , SE) observed 0250 UTC 16 July 2019
Temperature: 10.0°C (50°F)
Dewpoint: 7.0°C (45°F) [RH = 82%]
Pressure (altimeter): 29.70 inches Hg (1006.0 mb)
Winds: from the WNW (300 degrees) at 7 MPH (6 knots; 3.1 m/s)
Visibility: 6 or more miles (10+ km)
Ceiling: at least 12,000 feet AGL
Clouds: scattered clouds at 10000 feet AGL
Weather: no significant weather observed at this time

METAR text: ESOW 160220Z AUTO 30005KT 260V330 9999 SCT061/// 10/06 Q1007
Conditions at: ESOW (VASTERAS/HASSLO , SE) observed 0220 UTC 16 July 2019
Temperature: 10.0°C (50°F)
Dewpoint: 6.0°C (43°F) [RH = 76%]
Pressure (altimeter): 29.73 inches Hg (1007.0 mb)
Winds: from the WNW (300 degrees) at 6 MPH (5 knots; 2.6 m/s)
Visibility: 6 or more miles (10+ km)
Ceiling: at least 12,000 feet AGL
Clouds: scattered clouds at 6100 feet AGL
Weather: no significant weather observed at this time

METAR text: ESOW 160150Z AUTO 30006KT 9999 BKN061/// 10/07 Q1007
Conditions at: ESOW (VASTERAS/HASSLO , SE) observed 0150 UTC 16 July 2019
Temperature: 10.0°C (50°F)
Dewpoint: 7.0°C (45°F) [RH = 82%]
Pressure (altimeter): 29.73 inches Hg (1007.0 mb)
Winds: from the WNW (300 degrees) at 7 MPH (6 knots; 3.1 m/s)
Visibility: 6 or more miles (10+ km)
Ceiling: 6100 feet AGL
Clouds: broken clouds at 6100 feet AGL
Weather: no significant weather observed at this time

METAR text: ESOW 160120Z AUTO 30007KT 9999 SCT062/// 10/07 Q1007
Conditions at: ESOW (VASTERAS/HASSLO , SE) observed 0120 UTC 16 July 2019
Temperature: 10.0°C (50°F)
Dewpoint: 7.0°C (45°F) [RH = 82%]
Pressure (altimeter): 29.73 inches Hg (1007.0 mb)
Winds: from the WNW (300 degrees) at 8 MPH (7 knots; 3.6 m/s)
Visibility: 6 or more miles (10+ km)
Ceiling: at least 12,000 feet AGL
Clouds: scattered clouds at 6200 feet AGL
Weather: no significant weather observed at this time

METAR text: ESOW 160050Z AUTO 30006KT 9999 BKN057/// BKN130/// 10/07 Q1007
Conditions at: ESOW (VASTERAS/HASSLO , SE) observed 0050 UTC 16 July 2019
Temperature: 10.0°C (50°F)
Dewpoint: 7.0°C (45°F) [RH = 82%]
Pressure (altimeter): 29.73 inches Hg (1007.0 mb)
Winds: from the WNW (300 degrees) at 7 MPH (6 knots; 3.1 m/s)
Visibility: 6 or more miles (10+ km)
Ceiling: 5700 feet AGL
Clouds: broken clouds at 5700 feet AGL
broken clouds at 13000 feet AGL
Weather: no significant weather observed at this time

METAR text: ESOW 160020Z AUTO 30006KT 9999 BKN130/// 10/07 Q1007
Conditions at: ESOW (VASTERAS/HASSLO , SE) observed 0020 UTC 16 July 2019
Temperature: 10.0°C (50°F)
Dewpoint: 7.0°C (45°F) [RH = 82%]
Pressure (altimeter): 29.73 inches Hg (1007.0 mb)
Winds: from the WNW (300 degrees) at 7 MPH (6 knots; 3.1 m/s)
Visibility: 6 or more miles (10+ km)
Ceiling: 13000 feet AGL
Clouds: broken clouds at 13000 feet AGL
Weather: no significant weather observed at this time

METAR text: ESOW 152350Z AUTO 31006KT 9999 NCD 11/07 Q1008
Conditions at: ESOW (VASTERAS/HASSLO , SE) observed 2350 UTC 15 July 2019
Temperature: 11.0°C (52°F)
Dewpoint: 7.0°C (45°F) [RH = 76%]
Pressure (altimeter): 29.76 inches Hg (1008.0 mb)
Winds: from the NW (310 degrees) at 7 MPH (6 knots; 3.1 m/s)
Visibility: 6 or more miles (10+ km)
Ceiling: at least 12,000 feet AGL
Clouds: sky clear below 12,000 feet AGL
Weather: no significant weather observed at this time

METAR text: ESOW 152320Z AUTO 31005KT 9999 FEW130/// 10/08 Q1008
Conditions at: ESOW (VASTERAS/HASSLO , SE) observed 2320 UTC 15 July 2019
Temperature: 10.0°C (50°F)
Dewpoint: 8.0°C (46°F) [RH = 87%]
Pressure (altimeter): 29.76 inches Hg (1008.0 mb)
Winds: from the NW (310 degrees) at 6 MPH (5 knots; 2.6 m/s)
Visibility: 6 or more miles (10+ km)
Ceiling: at least 12,000 feet AGL
Clouds: few clouds at 13000 feet AGL
Weather: no significant weather observed at this time

METAR text: ESOW 152250Z AUTO VRB03KT 9999 NCD 10/09 Q1008
Conditions at: ESOW (VASTERAS/HASSLO , SE) observed 2250 UTC 15 July 2019
Temperature: 10.0°C (50°F)
Dewpoint: 9.0°C (48°F) [RH = 93%]
Pressure (altimeter): 29.76 inches Hg (1008.0 mb)
Winds: variable direction winds at 3 MPH (3 knots; 1.5 m/s)
Visibility: 6 or more miles (10+ km)
Ceiling: at least 12,000 feet AGL
Clouds: sky clear below 12,000 feet AGL
Weather: no significant weather observed at this time

METAR text: ESOW 152220Z AUTO VRB02KT 9999 BR FEW180/// 10/09 Q1008
Conditions at: ESOW (VASTERAS/HASSLO , SE) observed 2220 UTC 15 July 2019
Temperature: 10.0°C (50°F)
Dewpoint: 9.0°C (48°F) [RH = 93%]
Pressure (altimeter): 29.76 inches Hg (1008.0 mb)
Winds: variable direction winds at 2 MPH (2 knots; 1.0 m/s)
Visibility: 6 or more miles (10+ km)
Ceiling: at least 12,000 feet AGL
Clouds: few clouds at 18000 feet AGL
Weather: BR  (mist)

METAR text: ESOW 152150Z AUTO VRB02KT 9999 FEW180/// 10/08 Q1008
Conditions at: ESOW (VASTERAS/HASSLO , SE) observed 2150 UTC 15 July 2019
Temperature: 10.0°C (50°F)
Dewpoint: 8.0°C (46°F) [RH = 87%]
Pressure (altimeter): 29.76 inches Hg (1008.0 mb)
Winds: variable direction winds at 2 MPH (2 knots; 1.0 m/s)
Visibility: 6 or more miles (10+ km)
Ceiling: at least 12,000 feet AGL
Clouds: few clouds at 18000 feet AGL
Weather: no significant weather observed at this time

METAR text: ESOW 152120Z AUTO 25003KT 9999 FEW024/// SCT031/// BKN041/// 11/10 Q1008
Conditions at: ESOW (VASTERAS/HASSLO , SE) observed 2120 UTC 15 July 2019
Temperature: 11.0°C (52°F)
Dewpoint: 10.0°C (50°F) [RH = 94%]
Pressure (altimeter): 29.76 inches Hg (1008.0 mb)
Winds: from the WSW (250 degrees) at 3 MPH (3 knots; 1.5 m/s)
Visibility: 6 or more miles (10+ km)
Ceiling: 4100 feet AGL
Clouds: few clouds at 2400 feet AGL
scattered clouds at 3100 feet AGL
broken clouds at 4100 feet AGL
Weather: no significant weather observed at this time

METAR text: ESOW 152050Z AUTO 00000KT 9999 BKN026/// BKN034/// OVC070/// 11/10 Q1008
Conditions at: ESOW (VASTERAS/HASSLO , SE) observed 2050 UTC 15 July 2019
Temperature: 11.0°C (52°F)
Dewpoint: 10.0°C (50°F) [RH = 94%]
Pressure (altimeter): 29.76 inches Hg (1008.0 mb)
Winds: calm
Visibility: 6 or more miles (10+ km)
Ceiling: 2600 feet AGL
Clouds: broken clouds at 2600 feet AGL
broken clouds at 3400 feet AGL
overcast cloud deck at 7000 feet AGL
Weather: no significant weather observed at this time

METAR text: ESOW 152020Z AUTO 00000KT 9999 BKN037/// OVC066/// 11/10 Q1008
Conditions at: ESOW (VASTERAS/HASSLO , SE) observed 2020 UTC 15 July 2019
Temperature: 11.0°C (52°F)
Dewpoint: 10.0°C (50°F) [RH = 94%]
Pressure (altimeter): 29.76 inches Hg (1008.0 mb)
Winds: calm
Visibility: 6 or more miles (10+ km)
Ceiling: 3700 feet AGL
Clouds: broken clouds at 3700 feet AGL
overcast cloud deck at 6600 feet AGL
Weather: no significant weather observed at this time

METAR text: ESOW 151950Z AUTO 27002KT 9999 FEW038/// 11/09 Q1008
Conditions at: ESOW (VASTERAS/HASSLO , SE) observed 1950 UTC 15 July 2019
Temperature: 11.0°C (52°F)
Dewpoint: 9.0°C (48°F) [RH = 87%]
Pressure (altimeter): 29.76 inches Hg (1008.0 mb)
Winds: from the W (270 degrees) at 2 MPH (2 knots; 1.0 m/s)
Visibility: 6 or more miles (10+ km)
Ceiling: at least 12,000 feet AGL
Clouds: few clouds at 3800 feet AGL
Weather: no significant weather observed at this time

METAR text: ESOW 151920Z AUTO 02004KT 9999 FEW068/// 12/10 Q1008
Conditions at: ESOW (VASTERAS/HASSLO , SE) observed 1920 UTC 15 July 2019
Temperature: 12.0°C (54°F)
Dewpoint: 10.0°C (50°F) [RH = 88%]
Pressure (altimeter): 29.76 inches Hg (1008.0 mb)
Winds: from the NNE (20 degrees) at 5 MPH (4 knots; 2.1 m/s)
Visibility: 6 or more miles (10+ km)
Ceiling: at least 12,000 feet AGL
Clouds: few clouds at 6800 feet AGL
Weather: no significant weather observed at this time

METAR text: ESOW 151850Z AUTO 34004KT 9999 SCT072/// 14/09 Q1008
Conditions at: ESOW (VASTERAS/HASSLO , SE) observed 1850 UTC 15 July 2019
Temperature: 14.0°C (57°F)
Dewpoint: 9.0°C (48°F) [RH = 72%]
Pressure (altimeter): 29.76 inches Hg (1008.0 mb)
Winds: from the NNW (340 degrees) at 5 MPH (4 knots; 2.1 m/s)
Visibility: 6 or more miles (10+ km)
Ceiling: at least 12,000 feet AGL
Clouds: scattered clouds at 7200 feet AGL
Weather: no significant weather observed at this time

METAR text: ESOW 151820Z AUTO 31004KT 270V350 9999 OVC070/// 15/09 Q1008
Conditions at: ESOW (VASTERAS/HASSLO , SE) observed 1820 UTC 15 July 2019
Temperature: 15.0°C (59°F)
Dewpoint: 9.0°C (48°F) [RH = 67%]
Pressure (altimeter): 29.76 inches Hg (1008.0 mb)
Winds: from the NW (310 degrees) at 5 MPH (4 knots; 2.1 m/s)
Visibility: 6 or more miles (10+ km)
Ceiling: 7000 feet AGL
Clouds: overcast cloud deck at 7000 feet AGL
Weather: no significant weather observed at this time

METAR text: ESOW 151750Z AUTO 30005KT 250V340 9999 OVC055/// 14/09 Q1008
Conditions at: ESOW (VASTERAS/HASSLO , SE) observed 1750 UTC 15 July 2019
Temperature: 14.0°C (57°F)
Dewpoint: 9.0°C (48°F) [RH = 72%]
Pressure (altimeter): 29.76 inches Hg (1008.0 mb)
Winds: from the WNW (300 degrees) at 6 MPH (5 knots; 2.6 m/s)
Visibility: 6 or more miles (10+ km)
Ceiling: 5500 feet AGL
Clouds: overcast cloud deck at 5500 feet AGL
Weather: no significant weather observed at this time

METAR text: ESOW 151720Z AUTO 33007KT 9999 FEW053/// OVC068/// 14/09 Q1009
Conditions at: ESOW (VASTERAS/HASSLO , SE) observed 1720 UTC 15 July 2019
Temperature: 14.0°C (57°F)
Dewpoint: 9.0°C (48°F) [RH = 72%]
Pressure (altimeter): 29.79 inches Hg (1009.0 mb)
Winds: from the NNW (330 degrees) at 8 MPH (7 knots; 3.6 m/s)
Visibility: 6 or more miles (10+ km)
Ceiling: 6800 feet AGL
Clouds: few clouds at 5300 feet AGL
overcast cloud deck at 6800 feet AGL
Weather: no significant weather observed at this time

METAR text: ESOW 151650Z 01006KT 320V040 9999 SCT025 14/09 Q1009
Conditions at: ESOW (VASTERAS/HASSLO , SE) observed 1650 UTC 15 July 2019
Temperature: 14.0°C (57°F)
Dewpoint: 9.0°C (48°F) [RH = 72%]
Pressure (altimeter): 29.79 inches Hg (1009.0 mb)
Winds: from the N (10 degrees) at 7 MPH (6 knots; 3.1 m/s)
Visibility: 6 or more miles (10+ km)
Ceiling: at least 12,000 feet AGL
Clouds: scattered clouds at 2500 feet AGL
Weather: no significant weather observed at this time

METAR text: ESOW 151620Z 35008KT 9999 SCT020 14/08 Q1009
Conditions at: ESOW (VASTERAS/HASSLO , SE) observed 1620 UTC 15 July 2019
Temperature: 14.0°C (57°F)
Dewpoint: 8.0°C (46°F) [RH = 67%]
Pressure (altimeter): 29.79 inches Hg (1009.0 mb)
Winds: from the N (350 degrees) at 9 MPH (8 knots; 4.1 m/s)
Visibility: 6 or more miles (10+ km)
Ceiling: at least 12,000 feet AGL
Clouds: scattered clouds at 2000 feet AGL
Weather: no significant weather observed at this time

METAR text: ESOW 151550Z 35008KT 290V020 9999 SCT018 14/09 Q1009
Conditions at: ESOW (VASTERAS/HASSLO , SE) observed 1550 UTC 15 July 2019
Temperature: 14.0°C (57°F)
Dewpoint: 9.0°C (48°F) [RH = 72%]
Pressure (altimeter): 29.79 inches Hg (1009.0 mb)
Winds: from the N (350 degrees) at 9 MPH (8 knots; 4.1 m/s)
Visibility: 6 or more miles (10+ km)
Ceiling: at least 12,000 feet AGL
Clouds: scattered clouds at 1800 feet AGL
Weather: no significant weather observed at this time

METAR text: ESOW 151520Z 35009KT 310V010 9999 FEW012 BKN019 13/10 Q1009
Conditions at: ESOW (VASTERAS/HASSLO , SE) observed 1520 UTC 15 July 2019
Temperature: 13.0°C (55°F)
Dewpoint: 10.0°C (50°F) [RH = 82%]
Pressure (altimeter): 29.79 inches Hg (1009.0 mb)
Winds: from the N (350 degrees) at 10 MPH (9 knots; 4.6 m/s)
Visibility: 6 or more miles (10+ km)
Ceiling: 1900 feet AGL
Clouds: few clouds at 1200 feet AGL
broken clouds at 1900 feet AGL
Weather: no significant weather observed at this time

METAR text: ESOW 151450Z 34010KT 310V020 9999 BKN017 13/10 Q1009
Conditions at: ESOW (VASTERAS/HASSLO , SE) observed 1450 UTC 15 July 2019
Temperature: 13.0°C (55°F)
Dewpoint: 10.0°C (50°F) [RH = 82%]
Pressure (altimeter): 29.79 inches Hg (1009.0 mb)
Winds: from the NNW (340 degrees) at 12 MPH (10 knots; 5.1 m/s)
Visibility: 6 or more miles (10+ km)
Ceiling: 1700 feet AGL
Clouds: broken clouds at 1700 feet AGL
Weather: no significant weather observed at this time

METAR text: ESOW 151420Z 36010KT 9999 SCT012 BKN016 12/09 Q1010
Conditions at: ESOW (VASTERAS/HASSLO , SE) observed 1420 UTC 15 July 2019
Temperature: 12.0°C (54°F)
Dewpoint: 9.0°C (48°F) [RH = 82%]
Pressure (altimeter): 29.82 inches Hg (1010.0 mb)
Winds: from the N (360 degrees) at 12 MPH (10 knots; 5.1 m/s)
Visibility: 6 or more miles (10+ km)
Ceiling: 1600 feet AGL
Clouds: scattered clouds at 1200 feet AGL
broken clouds at 1600 feet AGL
Weather: no significant weather observed at this time

METAR text: ESOW 151350Z 36010KT 9999 SCT011 OVC049 12/09 Q1010
Conditions at: ESOW (VASTERAS/HASSLO , SE) observed 1350 UTC 15 July 2019
Temperature: 12.0°C (54°F)
Dewpoint: 9.0°C (48°F) [RH = 82%]
Pressure (altimeter): 29.82 inches Hg (1010.0 mb)
Winds: from the N (360 degrees) at 12 MPH (10 knots; 5.1 m/s)
Visibility: 6 or more miles (10+ km)
Ceiling: 4900 feet AGL
Clouds: scattered clouds at 1100 feet AGL
overcast cloud deck at 4900 feet AGL
Weather: no significant weather observed at this time